Time;durP1;ratioP1;P1;durP2;ratioP2;P2;SDS_P1;SDS_P2;PMS_P1;PMS_P2;Temp;Humidity;BMP_temperature;BMP_pressure;BME280_temperature;BME280_humidity;BME280_pressure;Samples;Min_cycle;Max_cycle;Signal;HPM_P1;HPM_P2
2022/08/08 00:03:38;;;;;;;1.98;0.90;;;15.10;99.90;;;;;;6248256;23;20398;-90
2022/08/08 00:06:29;;;;;;;1.20;0.68;;;15.00;99.90;;;;;;6221004;23;20020;-93
2022/08/08 00:09:01;;;;;;;1.67;0.65;;;15.00;99.90;;;;;;6195958;23;20427;-91
2022/08/08 00:11:46;;;;;;;2.22;0.88;;;14.90;99.90;;;;;;6196158;23;20043;-90
2022/08/08 00:17:49;;;;;;;1.88;0.88;;;15.00;99.90;;;;;;6247634;23;20027;-93
2022/08/08 00:20:25;;;;;;;2.72;0.75;;;15.00;99.90;;;;;;6196082;23;20016;-91
2022/08/08 00:22:54;;;;;;;2.85;0.90;;;15.00;99.90;;;;;;6196112;23;20019;-92
2022/08/08 00:25:39;;;;;;;3.35;0.70;;;14.90;99.90;;;;;;6196123;23;20016;-92
2022/08/08 00:28:09;;;;;;;1.27;0.70;;;14.90;99.90;;;;;;6196147;23;20031;-91
2022/08/08 00:30:40;;;;;;;1.60;0.80;;;14.90;99.90;;;;;;6195734;22;20024;-90
2022/08/08 00:33:17;;;;;;;1.65;0.80;;;14.80;99.90;;;;;;6196250;23;20515;-90
2022/08/08 00:36:14;;;;;;;2.75;0.80;;;14.80;99.90;;;;;;6195893;23;20016;-90
2022/08/08 00:38:50;;;;;;;1.95;0.90;;;14.80;99.90;;;;;;6195941;23;20056;-89
2022/08/08 00:41:31;;;;;;;2.08;0.88;;;14.70;99.90;;;;;;6195866;23;20131;-89
2022/08/08 00:44:28;;;;;;;2.40;0.80;;;14.70;99.90;;;;;;6220874;23;20094;-91
2022/08/08 00:47:31;;;;;;;1.88;0.63;;;14.80;99.90;;;;;;6195593;23;20012;-91
2022/08/08 00:50:15;;;;;;;2.20;0.82;;;14.80;99.90;;;;;;6195589;23;20062;-89
2022/08/08 00:53:12;;;;;;;3.03;1.00;;;14.80;99.90;;;;;;6195791;23;20020;-91
2022/08/08 00:56:23;;;;;;;2.25;0.60;;;14.80;99.90;;;;;;6195900;23;20100;-93
2022/08/08 00:59:27;;;;;;;2.05;0.82;;;14.80;99.90;;;;;;6195805;23;20016;-94
2022/08/08 01:02:21;;;;;;;1.23;0.60;;;14.80;99.90;;;;;;6195959;23;20020;-91
2022/08/08 01:05:05;;;;;;;1.75;1.00;;;14.80;99.90;;;;;;6184438;23;20020;-90
2022/08/08 01:07:50;;;;;;;3.85;0.85;;;14.80;99.90;;;;;;6195881;23;20012;-90
2022/08/08 01:10:44;;;;;;;2.53;0.93;;;14.80;99.90;;;;;;6195658;23;20016;-90
2022/08/08 01:13:48;;;;;;;2.60;1.15;;;14.80;99.90;;;;;;6195793;23;20016;-91
2022/08/08 01:16:28;;;;;;;2.70;0.90;;;14.80;99.90;;;;;;6195562;23;20485;-92
2022/08/08 01:18:57;;;;;;;2.75;1.13;;;14.80;99.90;;;;;;6195896;23;20020;-91
2022/08/08 01:21:51;;;;;;;3.28;1.20;;;14.80;99.90;;;;;;6195515;23;20038;-90
2022/08/08 01:24:19;;;;;;;3.28;1.10;;;14.80;99.90;;;;;;6195292;23;20095;-90
2022/08/08 01:27:09;;;;;;;1.90;0.73;;;14.80;99.90;;;;;;6195417;23;20016;-91
2022/08/08 01:29:59;;;;;;;1.38;0.70;;;14.80;99.90;;;;;;6195327;23;20016;-90
2022/08/08 01:32:43;;;;;;;2.05;0.80;;;14.80;99.90;;;;;;6195355;23;20020;-90
2022/08/08 01:35:20;;;;;;;1.27;0.60;;;14.80;99.90;;;;;;6195579;23;20072;-91
2022/08/08 01:37:55;;;;;;;1.60;0.60;;;14.80;99.90;;;;;;6195716;23;20342;-91
2022/08/08 01:40:31;;;;;;;2.13;0.80;;;14.80;99.90;;;;;;6195765;23;20023;-90
2022/08/08 01:43:12;;;;;;;2.22;0.75;;;14.80;99.90;;;;;;6195979;23;20102;-90
2022/08/08 01:45:59;;;;;;;2.83;1.10;;;14.80;99.90;;;;;;6195264;23;20023;-92
2022/08/08 01:49:03;;;;;;;2.70;1.20;;;14.80;99.90;;;;;;6195649;23;20074;-90
2022/08/08 01:51:57;;;;;;;2.67;1.10;;;14.80;99.90;;;;;;6193647;23;20027;-90
2022/08/08 01:54:41;;;;;;;1.92;0.80;;;14.80;99.90;;;;;;6195760;23;20023;-91
2022/08/08 01:57:31;;;;;;;2.58;0.90;;;14.80;99.90;;;;;;6195356;23;20061;-91
2022/08/08 02:00:11;;;;;;;1.77;0.73;;;14.80;99.90;;;;;;6195183;23;20072;-90
2022/08/08 02:02:48;;;;;;;2.75;0.95;;;14.70;99.90;;;;;;6195054;23;20023;-90
2022/08/08 02:05:34;;;;;;;;;;;14.70;99.90;;;;;;6195517;23;20412;-90
2022/08/08 02:08:08;;;;;;;1.45;0.90;;;14.60;99.90;;;;;;6195212;23;19922;-90
2022/08/08 02:10:59;;;;;;;2.25;0.93;;;14.50;99.90;;;;;;6194895;23;20531;-93
2022/08/08 02:13:48;;;;;;;2.80;1.08;;;14.40;99.90;;;;;;6195414;23;20020;-92
2022/08/08 02:16:36;;;;;;;1.77;0.70;;;14.40;99.90;;;;;;6194967;23;20101;-91
2022/08/08 02:19:16;;;;;;;2.80;0.95;;;14.40;99.90;;;;;;6195187;23;20460;-91
2022/08/08 02:25:03;;;;;;;1.33;0.70;;;14.40;99.90;;;;;;6219770;23;20059;-94
2022/08/08 02:27:51;;;;;;;1.77;0.60;;;14.30;99.90;;;;;;6195213;23;20035;-90
2022/08/08 02:30:21;;;;;;;1.45;0.73;;;14.30;99.90;;;;;;6194906;22;20012;-91
2022/08/08 02:33:02;;;;;;;1.67;0.80;;;14.30;99.90;;;;;;6194709;23;20023;-89
2022/08/08 02:35:36;;;;;;;2.53;0.90;;;14.40;99.90;;;;;;6194845;23;20023;-92
2022/08/08 02:38:31;;;;;;;2.08;0.90;;;14.50;99.90;;;;;;6194757;23;20016;-92
2022/08/08 02:41:26;;;;;;;2.35;0.90;;;14.50;99.90;;;;;;6194942;23;20016;-93
2022/08/08 02:44:03;;;;;;;2.40;1.08;;;14.60;99.90;;;;;;6180806;23;20019;-90
2022/08/08 02:46:35;;;;;;;2.38;0.63;;;14.60;99.90;;;;;;6194674;23;20023;-91
2022/08/08 02:49:36;;;;;;;1.58;0.77;;;14.70;99.90;;;;;;6194855;23;20012;-89
2022/08/08 02:52:42;;;;;;;4.38;1.30;;;14.70;99.90;;;;;;6194664;23;20048;-91
2022/08/08 02:55:22;;;;;;;3.05;1.10;;;14.80;99.90;;;;;;6194839;23;20381;-90
2022/08/08 02:58:36;;;;;;;1.88;0.80;;;14.80;99.90;;;;;;6195121;23;20062;-91
2022/08/08 03:01:17;;;;;;;3.30;1.40;;;14.80;99.90;;;;;;6191811;23;20020;-90
2022/08/08 03:04:04;;;;;;;3.47;1.35;;;14.90;99.90;;;;;;6194687;23;20099;-90
2022/08/08 03:07:10;;;;;;;1.80;1.00;;;14.90;99.90;;;;;;6195006;23;20016;-90
2022/08/08 03:09:55;;;;;;;2.78;1.13;;;14.90;99.90;;;;;;6174314;23;20035;-92
2022/08/08 03:12:39;;;;;;;2.95;1.52;;;15.00;99.90;;;;;;6194593;23;20031;-90
2022/08/08 03:15:14;;;;;;;2.72;1.35;;;15.00;99.90;;;;;;6194753;23;20449;-91
2022/08/08 03:17:49;;;;;;;3.40;1.23;;;15.10;99.90;;;;;;6194440;23;20454;-91
2022/08/08 03:20:15;;;;;;;3.63;1.40;;;15.10;99.90;;;;;;6146210;23;20023;-92
2022/08/08 03:22:52;;;;;;;4.00;1.83;;;15.20;99.90;;;;;;6220919;23;20020;-90
2022/08/08 03:25:20;;;;;;;4.43;1.70;;;15.20;99.90;;;;;;6196904;23;20015;-90
2022/08/08 03:27:56;;;;;;;3.90;1.40;;;15.20;99.90;;;;;;6196484;23;20095;-93
2022/08/08 03:30:22;;;;;;;3.10;1.30;;;15.20;99.90;;;;;;6196247;22;20024;-90
2022/08/08 03:35:38;;;;;;;4.32;1.52;;;15.30;99.90;;;;;;6221459;23;20027;-91
2022/08/08 03:38:04;;;;;;;3.95;1.73;;;15.30;99.90;;;;;;6196412;23;20026;-90
2022/08/08 03:40:31;;;;;;;6.15;1.70;;;15.30;99.90;;;;;;6196584;23;20012;-90
2022/08/08 03:42:57;;;;;;;3.75;1.63;;;15.30;99.90;;;;;;6221604;23;20020;-93
2022/08/08 03:45:24;;;;;;;;;;;15.30;99.90;;;;;;6196811;23;20020;-90
2022/08/08 03:48:07;;;;;;;3.47;1.55;;;15.40;99.90;;;;;;6196301;23;19911;-93
2022/08/08 03:50:35;;;;;;;4.65;1.85;;;15.40;99.90;;;;;;6196511;23;20016;-90
2022/08/08 03:53:12;;;;;;;4.70;1.38;;;15.40;99.90;;;;;;6196345;23;20020;-91
2022/08/08 03:55:39;;;;;;;;;;;15.40;99.90;;;;;;6196550;23;20027;-90
2022/08/08 03:58:05;;;;;;;2.58;1.30;;;15.40;99.90;;;;;;6195979;23;20005;-89
2022/08/08 04:00:31;;;;;;;2.72;1.50;;;15.50;99.90;;;;;;6196222;23;20446;-90
2022/08/08 04:02:59;;;;;;;4.25;1.13;;;15.50;99.90;;;;;;6196141;23;20020;-90
2022/08/08 04:05:30;;;;;;;3.78;1.55;;;15.50;99.90;;;;;;6196171;23;20349;-91
2022/08/08 04:07:58;;;;;;;3.33;1.55;;;15.50;99.90;;;;;;6196284;23;20055;-91
2022/08/08 04:10:25;;;;;;;5.10;1.52;;;15.50;99.90;;;;;;6196215;23;20012;-91
2022/08/08 04:12:51;;;;;;;4.32;1.80;;;15.50;99.90;;;;;;6196153;23;20044;-92
2022/08/08 04:15:17;;;;;;;3.83;1.42;;;15.60;99.90;;;;;;6196491;23;20046;-91
2022/08/08 04:17:42;;;;;;;4.00;1.65;;;15.50;99.90;;;;;;6196135;23;20023;-91
2022/08/08 04:20:08;;;;;;;2.83;1.33;;;15.60;99.90;;;;;;6196302;23;20466;-91
2022/08/08 04:22:34;;;;;;;3.72;1.40;;;15.60;99.90;;;;;;6196237;23;20266;-90
2022/08/08 04:25:00;;;;;;;4.75;1.52;;;15.60;99.90;;;;;;6196286;23;20016;-91
2022/08/08 04:27:26;;;;;;;4.07;1.95;;;15.60;99.90;;;;;;6196227;23;20027;-92
2022/08/08 04:29:51;;;;;;;4.15;1.63;;;15.60;99.90;;;;;;6195433;23;20016;-91
2022/08/08 04:32:17;;;;;;;4.40;1.73;;;15.70;99.90;;;;;;6195912;23;20087;-91
2022/08/08 04:34:44;;;;;;;3.67;1.98;;;15.70;99.90;;;;;;6195669;23;20016;-90
2022/08/08 04:37:10;;;;;;;3.78;1.58;;;15.70;99.90;;;;;;6195597;23;20020;-90
2022/08/08 04:39:36;;;;;;;;;;;15.70;99.90;;;;;;6196710;23;20016;-91
2022/08/08 04:42:02;;;;;;;2.83;1.10;;;15.70;99.90;;;;;;6196124;23;19915;-90
2022/08/08 04:44:28;;;;;;;3.28;1.48;;;15.70;99.90;;;;;;6196288;23;20063;-90
2022/08/08 04:46:54;;;;;;;3.45;1.42;;;15.70;99.90;;;;;;6196260;23;20020;-93
2022/08/08 04:49:20;;;;;;;3.50;1.70;;;15.70;99.90;;;;;;6195873;23;20047;-91
2022/08/08 04:51:45;;;;;;;4.28;1.63;;;15.70;99.90;;;;;;6195955;23;20028;-92
2022/08/08 04:54:11;;;;;;;3.50;1.50;;;15.70;99.90;;;;;;6196014;23;20091;-94
2022/08/08 04:56:37;;;;;;;2.63;1.25;;;15.80;99.90;;;;;;6195931;23;20016;-91
2022/08/08 04:59:03;;;;;;;3.38;1.65;;;15.80;99.90;;;;;;6195968;23;20027;-92
2022/08/08 05:01:29;;;;;;;4.45;1.98;;;15.80;99.90;;;;;;6195626;23;20012;-91
2022/08/08 05:03:55;;;;;;;3.92;1.70;;;15.70;99.90;;;;;;6195664;23;20016;-90
2022/08/08 05:06:21;;;;;;;4.25;1.80;;;15.70;99.90;;;;;;6195697;23;20319;-93
2022/08/08 05:09:06;;;;;;;5.25;1.40;;;15.80;99.90;;;;;;6195907;23;20501;-89
2022/08/08 05:11:37;;;;;;;4.82;1.83;;;15.70;99.90;;;;;;6195320;23;20027;-93
2022/08/08 05:14:10;;;;;;;2.83;1.40;;;15.80;99.90;;;;;;6192576;23;20012;-94
2022/08/08 05:16:38;;;;;;;5.18;1.83;;;15.80;99.90;;;;;;6195418;23;20527;-89
2022/08/08 05:19:04;;;;;;;5.18;1.77;;;15.80;99.90;;;;;;6195761;23;20020;-95
2022/08/08 05:21:41;;;;;;;3.65;1.70;;;15.80;99.90;;;;;;6195414;23;20021;-91
2022/08/08 05:41:03;;;;;;;3.35;1.70;;;15.90;99.90;;;;;;6277001;22;20437;-91
2022/08/08 05:43:31;;;;;;;5.18;2.03;;;15.90;99.90;;;;;;6225311;22;20024;-91
2022/08/08 05:46:02;;;;;;;4.45;2.05;;;16.00;99.90;;;;;;6225386;22;20012;-92
2022/08/08 05:48:28;;;;;;;4.65;1.67;;;16.00;99.90;;;;;;6225484;22;20023;-92
2022/08/08 05:50:54;;;;;;;5.10;2.15;;;16.00;99.90;;;;;;6225417;22;20012;-93
2022/08/08 05:53:30;;;;;;;3.67;1.85;;;16.00;99.90;;;;;;6225261;22;20012;-93
2022/08/08 05:56:00;;;;;;;4.88;2.15;;;16.00;99.90;;;;;;6225679;22;20512;-93
2022/08/08 05:58:31;;;;;;;5.65;2.00;;;16.00;99.90;;;;;;6226787;22;20057;-95
2022/08/08 06:00:58;;;;;;;4.00;1.65;;;16.00;99.90;;;;;;6225510;22;20445;-91
2022/08/08 06:03:25;;;;;;;4.72;2.00;;;16.10;99.90;;;;;;6225419;22;20020;-91
2022/08/08 06:06:05;;;;;;;5.03;2.20;;;16.10;99.90;;;;;;6225711;22;20011;-91
2022/08/08 06:08:51;;;;;;;5.22;1.70;;;16.10;99.90;;;;;;6223221;22;20015;-95
2022/08/08 06:11:33;;;;;;;3.20;1.55;;;16.10;99.90;;;;;;6223697;22;20015;-89
2022/08/08 06:14:06;;;;;;;3.25;1.55;;;16.20;99.90;;;;;;6222897;22;20102;-91
2022/08/08 06:16:35;;;;;;;4.10;1.65;;;16.20;99.90;;;;;;6224592;22;20016;-89
2022/08/08 06:19:15;;;;;;;3.95;1.88;;;16.20;99.90;;;;;;6224675;22;20020;-90
2022/08/08 06:22:40;;;;;;;3.50;1.63;;;16.20;99.90;;;;;;6224546;22;20019;-90
2022/08/08 06:25:27;;;;;;;5.28;1.92;;;16.30;99.90;;;;;;6073384;23;20024;-91
2022/08/08 06:27:59;;;;;;;3.72;1.90;;;16.30;99.90;;;;;;6076335;23;20053;-90
2022/08/08 06:30:26;;;;;;;4.55;1.90;;;16.30;99.90;;;;;;6194242;22;20444;-91
2022/08/08 06:32:56;;;;;;;3.80;1.60;;;16.40;99.90;;;;;;6225065;22;20387;-89
2022/08/08 06:35:22;;;;;;;4.40;1.80;;;16.50;99.90;;;;;;6225333;22;20098;-91
2022/08/08 06:37:51;;;;;;;4.28;2.13;;;16.40;99.90;;;;;;6224972;22;20019;-91
2022/08/08 06:40:18;;;;;;;4.50;2.13;;;16.50;99.90;;;;;;6224831;22;20018;-91
2022/08/08 06:42:51;;;;;;;3.63;1.90;;;16.50;99.90;;;;;;6224910;22;20024;-91
2022/08/08 06:45:19;;;;;;;4.05;1.90;;;16.60;99.90;;;;;;6224939;22;20090;-90
2022/08/08 06:47:45;;;;;;;3.58;1.63;;;16.60;99.90;;;;;;6225222;22;20020;-90
2022/08/08 06:50:11;;;;;;;4.05;1.65;;;16.70;99.90;;;;;;6225138;22;20012;-90
2022/08/08 06:52:38;;;;;;;3.60;1.42;;;16.80;99.90;;;;;;6224814;22;20019;-87
2022/08/08 06:55:06;;;;;;;4.60;1.73;;;16.90;99.90;;;;;;6224155;22;20019;-87
2022/08/08 06:57:33;;;;;;;3.80;1.50;;;17.00;99.90;;;;;;6250411;22;20027;-89
2022/08/08 06:59:59;;;;;;;5.60;1.90;;;17.00;99.90;;;;;;6226334;22;20090;-88
2022/08/08 07:02:27;;;;;;;4.10;1.95;;;17.10;99.90;;;;;;6226279;22;20330;-88
2022/08/08 07:05:07;;;;;;;4.70;1.98;;;17.10;99.90;;;;;;6251167;22;20012;-87
2022/08/08 07:07:51;;;;;;;5.43;1.90;;;17.20;99.90;;;;;;6226818;22;20102;-87
2022/08/08 07:10:22;;;;;;;3.83;1.55;;;17.20;99.90;;;;;;6226252;22;20027;-88
2022/08/08 07:12:59;;;;;;;3.72;1.80;;;17.30;99.90;;;;;;6226121;22;20011;-88
2022/08/08 07:15:49;;;;;;;3.33;1.45;;;17.50;99.90;;;;;;6226511;22;20027;-91
2022/08/08 07:18:44;;;;;;;3.58;1.27;;;17.80;99.90;;;;;;6226747;22;20078;-92
2022/08/08 07:21:13;;;;;;;4.10;1.30;;;18.00;99.90;;;;;;6201133;22;20066;-92
2022/08/08 07:23:59;;;;;;;3.03;1.42;;;18.00;99.90;;;;;;6227025;22;20027;-91
2022/08/08 07:26:28;;;;;;;5.23;1.63;;;18.10;99.90;;;;;;6226921;22;20027;-91
2022/08/08 07:28:54;;;;;;;2.70;1.30;;;18.10;99.90;;;;;;6252081;22;20016;-91
2022/08/08 07:31:20;;;;;;;3.45;1.55;;;18.20;99.90;;;;;;6226871;22;20049;-91
2022/08/08 07:33:48;;;;;;;2.97;1.50;;;18.30;99.90;;;;;;6226562;22;20396;-91
2022/08/08 07:36:14;;;;;;;4.43;1.60;;;18.30;99.90;;;;;;6226452;22;20376;-91
2022/08/08 07:38:40;;;;;;;2.67;1.50;;;18.40;99.90;;;;;;6226694;22;20074;-91
2022/08/08 07:41:08;;;;;;;3.67;1.40;;;18.40;99.90;;;;;;6226578;22;20012;-91
2022/08/08 07:43:35;;;;;;;3.55;1.20;;;18.40;99.90;;;;;;6226690;22;20024;-93
2022/08/08 07:46:01;;;;;;;3.92;1.60;;;18.50;99.90;;;;;;6226814;22;20023;-91
2022/08/08 07:48:27;;;;;;;3.28;1.25;;;18.50;99.90;;;;;;6226568;22;20071;-90
2022/08/08 07:50:57;;;;;;;3.15;1.05;;;18.60;99.90;;;;;;6226573;22;20016;-90
2022/08/08 07:53:40;;;;;;;2.58;1.02;;;18.60;99.90;;;;;;6226488;22;20023;-90
2022/08/08 07:56:10;;;;;;;2.15;0.75;;;18.70;99.90;;;;;;6226436;22;20437;-90
2022/08/08 07:58:41;;;;;;;2.25;1.00;;;18.70;99.90;;;;;;6226194;22;20020;-91
2022/08/08 08:01:19;;;;;;;2.25;0.93;;;18.80;99.90;;;;;;6224856;22;20047;-90
2022/08/08 08:04:07;;;;;;;3.22;0.88;;;18.90;99.90;;;;;;6226529;22;20039;-91
2022/08/08 08:06:33;;;;;;;1.48;0.70;;;18.90;99.90;;;;;;6226184;22;20068;-91
2022/08/08 08:09:03;;;;;;;;;;;19.00;99.90;;;;;;6226487;22;20129;-92
2022/08/08 08:11:33;;;;;;;1.65;0.80;;;19.00;99.90;;;;;;6226415;22;19921;-90
2022/08/08 08:14:07;;;;;;;1.67;0.60;;;19.10;99.90;;;;;;6226219;22;20020;-89
2022/08/08 08:16:40;;;;;;;2.08;0.82;;;19.10;99.90;;;;;;6225740;22;20465;-89
2022/08/08 08:19:08;;;;;;;1.42;0.68;;;19.10;99.90;;;;;;6225823;22;20514;-90
2022/08/08 08:21:45;;;;;;;1.20;0.55;;;19.10;99.90;;;;;;6226005;22;20095;-91
2022/08/08 08:24:12;;;;;;;1.77;0.70;;;19.10;99.90;;;;;;6225461;22;20404;-89
2022/08/08 08:26:39;;;;;;;1.20;0.60;;;19.00;99.90;;;;;;6224769;22;20011;-91
2022/08/08 08:29:05;;;;;;;;;;;19.00;99.90;;;;;;6225016;22;20015;-92
2022/08/08 08:31:31;;;;;;;0.75;0.50;;;19.00;99.90;;;;;;6224431;22;19992;-91
2022/08/08 08:33:57;;;;;;;1.40;0.60;;;18.90;99.90;;;;;;6226370;22;20075;-92
2022/08/08 08:36:23;;;;;;;2.75;0.60;;;18.80;99.90;;;;;;6224762;22;20026;-92
2022/08/08 08:38:49;;;;;;;2.15;0.77;;;18.80;99.90;;;;;;6226350;22;20015;-91
2022/08/08 08:44:17;;;;;;;1.75;0.50;;;18.80;99.90;;;;;;6249621;22;19922;-94
2022/08/08 08:46:44;;;;;;;0.93;0.60;;;18.80;99.90;;;;;;6224466;22;20038;-92
2022/08/08 08:49:10;;;;;;;1.27;0.60;;;18.80;99.90;;;;;;6223286;22;20012;-93
2022/08/08 08:51:40;;;;;;;1.50;0.93;;;18.80;99.90;;;;;;6224258;22;20051;-92
2022/08/08 08:54:13;;;;;;;2.83;0.73;;;18.80;99.90;;;;;;6224763;22;20012;-94
2022/08/08 08:59:15;;;;;;;1.52;0.63;;;18.80;99.90;;;;;;6244239;22;20031;-92
2022/08/08 09:01:43;;;;;;;1.55;0.50;;;18.90;99.90;;;;;;6193915;23;20056;-90
2022/08/08 09:04:13;;;;;;;0.70;0.50;;;18.90;99.90;;;;;;6193768;23;20051;-92
2022/08/08 09:06:41;;;;;;;2.15;0.52;;;18.90;99.90;;;;;;6193704;23;20020;-92
2022/08/08 09:09:28;;;;;;;1.17;0.60;;;18.90;99.90;;;;;;6194547;23;20048;-91
2022/08/08 09:12:33;;;;;;;;;;;;;;;;;;;;;
2022/08/08 09:14:59;;;;;;;1.08;0.52;;;19.10;99.90;;;;;;6220616;23;19970;-91
2022/08/08 09:17:25;;;;;;;;;;;19.10;99.90;;;;;;6196217;23;20027;-94
2022/08/08 09:19:58;;;;;;;1.40;0.63;;;19.20;99.90;;;;;;6195407;23;19915;-92
2022/08/08 09:22:27;;;;;;;1.73;0.60;;;19.20;99.90;;;;;;6195445;23;20012;-91
2022/08/08 09:25:01;;;;;;;1.00;0.50;;;19.30;99.90;;;;;;6195784;23;20388;-93
2022/08/08 09:27:27;;;;;;;1.48;0.60;;;19.30;99.90;;;;;;6195074;23;20019;-92
2022/08/08 09:30:04;;;;;;;2.22;0.60;;;19.40;99.90;;;;;;6194937;23;20016;-93
2022/08/08 09:32:32;;;;;;;2.75;0.47;;;19.40;99.90;;;;;;6218581;23;20035;-92
2022/08/08 09:35:00;;;;;;;1.65;0.60;;;19.50;99.90;;;;;;6219950;23;20019;-93
2022/08/08 09:37:29;;;;;;;1.25;0.50;;;19.50;99.90;;;;;;6194747;23;20048;-92
2022/08/08 09:39:59;;;;;;;2.15;0.65;;;19.60;99.90;;;;;;6195161;23;20051;-93
2022/08/08 09:42:35;;;;;;;0.70;0.45;;;19.60;99.90;;;;;;6195482;23;20008;-95
2022/08/08 09:45:20;;;;;;;2.78;0.60;;;19.60;99.90;;;;;;6220224;23;20020;-92
2022/08/08 09:47:48;;;;;;;1.10;0.60;;;19.70;99.90;;;;;;6195313;23;20470;-95
2022/08/08 09:50:16;;;;;;;0.70;0.40;;;19.70;99.90;;;;;;6195107;23;20153;-90
2022/08/08 09:52:48;;;;;;;2.05;0.60;;;19.80;99.90;;;;;;6194212;23;20327;-90
2022/08/08 09:55:14;;;;;;;1.33;0.63;;;19.80;99.90;;;;;;6219235;23;20018;-90
2022/08/08 09:57:43;;;;;;;1.40;0.40;;;19.80;99.90;;;;;;6193862;23;20028;-92
2022/08/08 10:00:11;;;;;;;0.82;0.43;;;19.90;99.90;;;;;;6195037;23;20316;-90
2022/08/08 10:02:41;;;;;;;3.80;0.80;;;19.90;99.90;;;;;;6194870;23;20020;-92
2022/08/08 10:05:17;;;;;;;1.92;0.60;;;20.00;99.90;;;;;;6195291;23;20012;-91
2022/08/08 10:07:49;;;;;;;1.52;0.60;;;20.10;99.90;;;;;;6195240;23;20345;-91
2022/08/08 10:10:39;;;;;;;1.63;0.68;;;20.10;99.90;;;;;;6194881;23;20020;-90
2022/08/08 10:13:27;;;;;;;2.25;0.52;;;20.10;99.90;;;;;;6195096;23;20027;-93
2022/08/08 10:15:55;;;;;;;1.42;0.50;;;20.10;99.90;;;;;;6195037;23;20013;-89
2022/08/08 10:18:24;;;;;;;1.42;0.50;;;20.10;99.90;;;;;;6194801;23;20045;-90
2022/08/08 10:20:55;;;;;;;0.60;0.50;;;20.10;99.90;;;;;;6194768;23;20520;-90
2022/08/08 10:23:33;;;;;;;2.55;0.65;;;20.20;99.90;;;;;;6194814;23;20077;-90
2022/08/08 10:25:59;;;;;;;1.58;0.70;;;20.20;99.90;;;;;;6194936;23;20500;-90
2022/08/08 10:28:28;;;;;;;0.63;0.40;;;20.20;99.90;;;;;;6195023;23;20055;-91
2022/08/08 10:32:30;;;;;;;1.45;0.40;;;20.20;99.90;;;;;;6194943;23;20019;-91
2022/08/08 10:33:51;;;;;;;0.50;0.40;;;20.20;99.90;;;;;;6220256;23;20059;-92
2022/08/08 10:36:23;;;;;;;2.70;0.60;;;20.20;99.90;;;;;;6195469;23;20023;-92
2022/08/08 10:38:52;;;;;;;1.48;0.60;;;20.20;99.90;;;;;;6195235;23;20023;-90
2022/08/08 10:41:22;;;;;;;1.00;0.55;;;20.20;99.90;;;;;;6194917;23;20015;-92
2022/08/08 10:43:50;;;;;;;0.75;0.50;;;20.20;99.90;;;;;;6195198;23;20318;-90
2022/08/08 10:46:25;;;;;;;2.17;0.57;;;20.20;99.90;;;;;;6194606;23;20073;-90
2022/08/08 10:48:53;;;;;;;1.30;0.38;;;20.30;99.90;;;;;;6194510;23;20461;-90
2022/08/08 10:51:20;;;;;;;0.93;0.50;;;20.30;99.90;;;;;;6194412;23;20353;-89
2022/08/08 10:53:51;;;;;;;1.75;0.50;;;20.30;99.90;;;;;;6194807;23;20020;-89
2022/08/08 10:56:17;;;;;;;0.70;0.50;;;20.30;99.90;;;;;;6194601;23;20450;-90
2022/08/08 10:58:43;;;;;;;;;;;20.40;99.90;;;;;;6194677;23;20063;-91
2022/08/08 11:01:10;;;;;;;1.10;0.40;;;20.30;99.90;;;;;;6219664;23;20226;-91
2022/08/08 11:03:43;;;;;;;0.40;0.30;;;20.40;99.90;;;;;;6194900;23;20091;-91
2022/08/08 11:06:10;;;;;;;0.82;0.40;;;20.40;99.90;;;;;;6194579;23;20016;-91
2022/08/08 11:08:36;;;;;;;1.05;0.50;;;20.50;99.90;;;;;;6219535;23;20138;-90
2022/08/08 11:11:05;;;;;;;1.10;0.55;;;20.50;99.90;;;;;;6194826;23;20012;-92
2022/08/08 11:13:44;;;;;;;1.20;0.60;;;20.50;99.90;;;;;;6194627;23;20020;-93
2022/08/08 11:16:26;;;;;;;2.53;0.60;;;20.50;99.90;;;;;;6194941;23;20016;-90
2022/08/08 11:18:53;;;;;;;1.17;0.50;;;20.50;99.90;;;;;;6194389;23;20026;-91
2022/08/08 11:21:20;;;;;;;1.05;0.55;;;20.50;99.90;;;;;;6194948;23;20314;-92
2022/08/08 11:23:48;;;;;;;2.45;0.60;;;20.50;99.90;;;;;;6194563;23;20020;-92
2022/08/08 11:26:19;;;;;;;1.45;0.70;;;20.60;99.90;;;;;;6194889;23;20066;-94
2022/08/08 11:28:45;;;;;;;2.28;0.70;;;20.60;99.90;;;;;;6194295;23;20103;-92
2022/08/08 11:31:15;;;;;;;1.90;0.60;;;20.60;99.90;;;;;;6194492;23;20017;-92
2022/08/08 11:33:47;;;;;;;1.20;0.60;;;20.60;99.90;;;;;;6194655;23;20476;-91
2022/08/08 11:36:14;;;;;;;0.98;0.50;;;20.60;99.90;;;;;;6194682;23;20012;-91
2022/08/08 11:38:45;;;;;;;1.02;0.60;;;20.50;99.90;;;;;;6194232;23;20020;-91
2022/08/08 11:41:11;;;;;;;0.80;0.55;;;20.60;99.90;;;;;;6194336;23;20357;-93
2022/08/08 11:43:38;;;;;;;0.73;0.50;;;20.60;99.90;;;;;;6195368;23;20016;-90
2022/08/08 11:46:04;;;;;;;3.53;0.55;;;20.60;99.90;;;;;;6196367;23;20517;-91
2022/08/08 11:48:31;;;;;;;1.33;0.50;;;20.50;99.90;;;;;;6196239;23;20061;-94
2022/08/08 11:50:58;;;;;;;1.13;0.50;;;20.60;99.90;;;;;;6196242;23;20338;-93
2022/08/08 11:53:25;;;;;;;1.45;0.50;;;20.60;99.90;;;;;;6196389;23;20016;-94
2022/08/08 11:55:51;;;;;;;;;;;20.60;99.90;;;;;;6196783;23;20020;-91
2022/08/08 11:58:17;;;;;;;1.65;0.70;;;20.60;99.90;;;;;;6196006;23;19955;-93
2022/08/08 12:00:51;;;;;;;1.35;0.60;;;20.60;99.90;;;;;;6196475;23;20469;-92
2022/08/08 12:03:29;;;;;;;1.70;0.60;;;20.70;99.90;;;;;;6196106;23;20035;-90
2022/08/08 12:05:55;;;;;;;1.55;0.50;;;20.70;99.90;;;;;;6196069;23;20016;-90
2022/08/08 12:08:32;;;;;;;0.63;0.40;;;20.70;99.90;;;;;;6196109;23;20048;-91
2022/08/08 12:11:01;;;;;;;0.93;0.50;;;20.80;99.90;;;;;;6196406;23;20012;-92
2022/08/08 12:13:29;;;;;;;1.50;0.40;;;20.80;99.90;;;;;;6196391;23;20020;-94
2022/08/08 12:16:06;;;;;;;1.00;0.40;;;20.90;99.90;;;;;;6195957;23;20341;-93
2022/08/08 12:18:45;;;;;;;0.70;0.38;;;21.00;99.90;;;;;;6195780;23;20020;-93
2022/08/08 12:21:25;;;;;;;0.65;0.35;;;21.00;99.90;;;;;;6194607;23;20354;-93
2022/08/08 12:24:14;;;;;;;1.95;0.52;;;21.10;99.90;;;;;;6194733;23;20020;-93
2022/08/08 12:26:48;;;;;;;1.38;0.40;;;21.20;99.90;;;;;;6194442;23;20020;-93
2022/08/08 12:29:23;;;;;;;0.68;0.30;;;21.30;99.90;;;;;;6195645;23;20016;-92
2022/08/08 12:32:05;;;;;;;0.98;0.40;;;21.40;99.90;;;;;;6196973;23;20282;-91
2022/08/08 12:34:42;;;;;;;0.93;0.30;;;21.40;99.90;;;;;;6194297;23;20102;-91
2022/08/08 12:37:19;;;;;;;0.85;0.30;;;21.40;99.90;;;;;;6195031;23;20022;-94
2022/08/08 12:39:45;;;;;;;2.40;0.50;;;21.50;99.90;;;;;;6195809;23;20039;-93
2022/08/08 12:42:11;;;;;;;0.35;0.30;;;21.70;99.90;;;;;;6195708;23;20454;-94
2022/08/08 12:44:40;;;;;;;1.20;0.50;;;21.90;99.90;;;;;;6198501;23;20015;-89
2022/08/08 12:47:28;;;;;;;2.17;0.35;;;22.00;99.90;;;;;;6196655;23;20024;-90
2022/08/08 12:49:54;;;;;;;0.57;0.40;;;22.00;99.70;;;;;;6196595;23;20091;-88
2022/08/08 12:52:21;;;;;;;0.70;0.40;;;21.90;99.80;;;;;;6195615;23;20024;-89
2022/08/08 12:54:47;;;;;;;1.10;0.40;;;21.80;99.70;;;;;;6195148;23;20081;-89
2022/08/08 12:57:21;;;;;;;1.23;0.40;;;21.80;99.70;;;;;;6195637;23;20442;-88
2022/08/08 12:59:52;;;;;;;0.98;0.43;;;21.70;99.50;;;;;;6190331;23;20012;-86
2022/08/08 13:02:41;;;;;;;0.73;0.32;;;21.70;99.60;;;;;;6189804;23;20342;-87
2022/08/08 13:09:08;;;;;;;0.68;0.30;;;22.30;99.30;;;;;;6214966;23;20016;-89
2022/08/08 13:11:40;;;;;;;1.67;0.40;;;22.60;98.80;;;;;;6188503;23;20023;-89
2022/08/08 13:14:14;;;;;;;0.93;0.50;;;22.70;98.90;;;;;;6214661;23;20017;-89
2022/08/08 13:16:41;;;;;;;0.80;0.30;;;22.90;98.70;;;;;;6188608;23;20469;-90
2022/08/08 13:19:26;;;;;;;0.68;0.35;;;23.10;98.70;;;;;;6190161;23;20338;-89
2022/08/08 13:21:51;;;;;;;1.08;0.50;;;23.20;98.10;;;;;;6187901;23;20439;-90
2022/08/08 13:24:17;;;;;;;1.02;0.52;;;23.30;97.80;;;;;;6189951;23;20104;-89
2022/08/08 13:26:43;;;;;;;1.27;0.40;;;23.40;98.00;;;;;;6190169;23;20016;-88
2022/08/08 13:29:10;;;;;;;1.23;0.45;;;23.30;97.90;;;;;;6214809;23;20016;-88
2022/08/08 13:31:49;;;;;;;1.13;0.43;;;23.20;97.40;;;;;;6190199;23;20017;-90
2022/08/08 13:34:22;;;;;;;0.70;0.40;;;23.00;97.40;;;;;;6190579;23;20020;-88
2022/08/08 13:36:52;;;;;;;0.38;0.30;;;22.90;97.50;;;;;;6190030;23;20095;-89
2022/08/08 13:39:19;;;;;;;0.93;0.43;;;22.60;97.40;;;;;;6190060;23;20519;-89
2022/08/08 13:42:03;;;;;;;1.45;0.40;;;22.50;97.40;;;;;;6214981;23;20013;-88
2022/08/08 13:44:29;;;;;;;1.58;0.70;;;22.40;97.60;;;;;;6189491;23;20076;-86
2022/08/08 13:46:58;;;;;;;1.42;0.47;;;22.20;97.80;;;;;;6188984;23;20058;-88
2022/08/08 13:49:24;;;;;;;0.70;0.40;;;22.20;98.00;;;;;;6187896;23;20023;-88
2022/08/08 13:52:03;;;;;;;;;;;22.10;97.70;;;;;;6189413;23;20043;-89
2022/08/08 13:54:32;;;;;;;1.27;0.60;;;22.10;96.70;;;;;;6212044;23;20260;-87
2022/08/08 13:57:00;;;;;;;0.80;0.30;;;22.00;97.70;;;;;;6214527;23;20095;-88
2022/08/08 13:59:34;;;;;;;0.95;0.50;;;22.00;97.80;;;;;;6189475;23;20071;-89
2022/08/08 14:02:01;;;;;;;0.85;0.50;;;22.10;98.00;;;;;;6189579;23;20342;-88
2022/08/08 14:04:27;;;;;;;1.48;0.52;;;22.20;97.70;;;;;;6189442;23;20016;-87